Albion, WA

6:06 AM PDT on October 23, 2014 (GMT -0700)
Barclay Ridge | Change Station
CLOSE
Current Station
Personal Weather Station
Location: Pullman, WA
Elevation: 2644 ft
Nearby Weather Stations

Elev 2644 ft 46.73 °N, 117.21 °W | Updated 8 minutes ago

Overcast
Overcast
50.2 °F
Feels Like 50.2 °F
N
4.7
Wind Variable Wind from East

Today
High -- | Low -- °F
--% Chance of Precip.
Yesterday
High -- | Low -- °F
Precip. -- in
7:18 AM 5:47 PM
Waning Crescent, 0% visible
Pressure 29.84 in
Visibility 10.0 miles
Clouds Mostly Cloudy 1600 ft
Overcast 5000 ft
Dew Point 49 °F
Humidity 97%
Rainfall 0.05 in
Snow Depth Not available.
UV 0 out of 12
Pollen .40 out of 12
Air Quality Not available.
Flu Activity Sporadic
METAR KPUW 231253Z AUTO 06004KT 10SM -RA BKN016 OVC050 10/08 A2984 RMK AO2 SLP103 P0000 T01000083

More Conditions Fewer Conditions

Pressure 29.84 in
Visibility 10.0 miles
Clouds Mostly Cloudy 1600 ft
Overcast 5000 ft
Dew Point 49 °F
Humidity 97%
Rainfall 0.05 in
Snow Depth Not available.
UV 0 out of 12
Pollen .40 out of 12
Air Quality Not available.
Flu Activity Sporadic
METAR KPUW 231253Z AUTO 06004KT 10SM -RA BKN016 OVC050 10/08 A2984 RMK AO2 SLP103 P0000 T01000083

More Conditions Fewer Conditions

10-Day Weather Forecast

Almanac

Astronomy

Oct. 23, 2014 Rise Set
Actual Time 7:18 AM PDT 5:47 PM PDT
Civil Twilight 6:47 AM PDT 6:18 PM PDT
Nautical Twilight 6:11 AM PDT 6:53 PM PDT
Astronomical Twilight 5:36 AM PDT 7:28 PM PDT
Moon 7:01 AM PDT 5:51 PM PDT
Length of Visible Light 11h 31m
Length of Day
10h 29m
Tomorrow will be 3m 7s shorter.
Waning Crescent, 0% of the Moon is Illuminated
Today
Waning Crescent
Oct 23
New
Oct 30
First Quarter
Nov 6
Full
Nov 14
Last Quarter

Today's Extremes

State Highs State Lows

Community

WunderPhotos

Upload Photos

1,764,222 photos uploaded!

Nearby

Snow Depth

Station Depth Elevation
Sourdough Gulch 1 in 4000 ft
Spruce Springs 1 in 5700 ft
Quartz Peak 1 in 4700 ft
Bunchgrass Meadow 0 in 5000 ft
Moses Mountain 0 in 5300 ft

Earthquake Activity

City Distance Mag. Time & Date
No recent earthquake activity has been reported nearby.
Minimum magnitude displayed is 2.5.

Coastal Water Temperatures

Place Temperature
No Stations Reporting

Nearby Weather Stations